createdAt,value
2019-04-24T00:01:21.064Z,67.30
2019-04-24T00:05:52.227Z,67.00
2019-04-24T00:09:39.994Z,67.10
2019-04-24T00:22:23.622Z,67.60
2019-04-24T00:26:31.577Z,67.40
2019-04-24T00:30:40.804Z,67.30
2019-04-24T00:34:44.804Z,67.40
2019-04-24T00:47:10.173Z,67.40
2019-04-24T00:51:26.369Z,68.50
2019-04-24T00:59:36.623Z,67.70
2019-04-24T01:03:49.609Z,67.70
2019-04-24T01:12:21.914Z,67.90
2019-04-24T01:20:36.988Z,67.80
2019-04-24T01:28:40.004Z,67.90
2019-04-24T01:32:56.201Z,67.90
2019-04-24T01:37:06.877Z,68.60
2019-04-24T01:49:31.009Z,68.30
2019-04-24T01:53:28.307Z,68.50
2019-04-24T01:57:46.558Z,68.30
2019-04-24T02:01:45.827Z,68.40
2019-04-24T02:05:44.886Z,68.40
2019-04-24T02:22:43.443Z,70.00
2019-04-24T02:31:10.911Z,68.80
2019-04-24T02:35:16.808Z,68.80
2019-04-24T02:51:43.465Z,68.40
2019-04-24T02:55:49.645Z,68.40
2019-04-24T03:25:21.192Z,69.90
2019-04-24T03:29:26.995Z,69.60
2019-04-24T03:38:02.852Z,69.90
2019-04-24T03:42:34.627Z,69.80
2019-04-24T03:50:01.209Z,70.00
2019-04-24T04:06:55.589Z,71.30
2019-04-24T04:19:09.781Z,71.70
2019-04-24T04:27:15.474Z,72.10
2019-04-24T04:35:48.068Z,72.00
2019-04-24T04:44:16.637Z,71.70
2019-04-24T04:48:35.299Z,71.80
2019-04-24T04:53:12.940Z,72.30
2019-04-24T04:57:03.305Z,73.00
2019-04-24T05:05:43.825Z,72.40
2019-04-24T05:14:24.660Z,73.00
2019-04-24T05:18:03.778Z,72.50
2019-04-24T05:22:00.255Z,72.50
2019-04-24T05:26:39.413Z,72.40
2019-04-24T05:30:32.232Z,72.40
2019-04-24T05:34:31.355Z,72.60
2019-04-24T05:38:48.635Z,72.60
2019-04-24T05:46:43.473Z,72.60
2019-04-24T06:00:10.709Z,73.20
2019-04-24T06:04:12.419Z,73.50
2019-04-24T06:08:28.160Z,74.50
2019-04-24T06:12:43.908Z,73.60
2019-04-24T06:16:49.440Z,73.40
2019-04-24T06:25:06.465Z,73.20
2019-04-24T06:33:13.579Z,73.20
2019-04-24T06:46:15.771Z,73.20
2019-04-24T06:50:13.566Z,73.10
2019-04-24T06:58:19.115Z,73.60
2019-04-24T07:02:31.149Z,72.80
2019-04-24T07:11:50.272Z,96.90
2019-04-24T07:23:55.993Z,92.90
2019-04-24T07:32:36.943Z,72.40
2019-04-24T07:41:01.709Z,72.90
2019-04-24T07:44:57.101Z,72.40
2019-04-24T07:53:48.836Z,71.50
2019-04-24T07:57:37.189Z,71.10
2019-04-24T08:05:55.113Z,70.50
2019-04-24T08:15:02.878Z,70.80
2019-04-24T08:18:35.270Z,71.10
2019-04-24T08:27:05.197Z,67.90
2019-04-24T08:35:45.116Z,63.30
2019-04-24T08:39:42.263Z,62.70
2019-04-24T08:48:00.164Z,63.00
2019-04-24T08:52:19.387Z,63.70
2019-04-24T08:56:04.004Z,65.20
2019-04-24T09:08:48.623Z,66.80
2019-04-24T09:13:17.150Z,66.70
2019-04-24T09:21:15.657Z,66.90
2019-04-24T09:26:02.947Z,67.50
2019-04-24T09:33:55.261Z,66.80
2019-04-24T09:38:34.650Z,67.50
2019-04-24T09:43:08.593Z,66.00
2019-04-24T09:51:07.945Z,65.40
2019-04-24T09:55:21.727Z,65.00
2019-04-24T09:59:24.010Z,64.80
2019-04-24T10:03:50.617Z,65.10
2019-04-24T10:07:42.895Z,64.50
2019-04-24T10:12:04.590Z,64.80
2019-04-24T10:16:02.255Z,64.90
2019-04-24T10:24:12.309Z,64.40
2019-04-24T10:29:08.866Z,65.00
2019-04-24T10:33:12.574Z,64.40
2019-04-24T10:37:45.990Z,64.90
2019-04-24T10:41:55.321Z,65.30
2019-04-24T10:45:59.572Z,64.80
2019-04-24T10:50:27.726Z,65.00
2019-04-24T10:54:43.697Z,65.30
2019-04-24T11:03:11.187Z,64.50
2019-04-24T11:16:52.277Z,63.90
2019-04-24T11:21:16.758Z,63.60
2019-04-24T11:25:27.937Z,63.70
2019-04-24T11:29:53.749Z,63.00
2019-04-24T11:34:23.795Z,62.50
2019-04-24T11:38:11.878Z,62.70
2019-04-24T11:42:10.322Z,61.60
2019-04-24T11:51:22.867Z,62.10
2019-04-24T11:56:04.311Z,63.30
2019-04-24T11:58:51.248Z,61.60
2019-04-24T12:03:34.077Z,61.60
2019-04-24T12:08:00.482Z,61.40
2019-04-24T12:11:48.394Z,62.70
2019-04-24T12:16:11.132Z,62.40
2019-04-24T12:20:57.159Z,61.10
2019-04-24T12:24:50.991Z,61.00
2019-04-24T12:29:04.207Z,59.30
2019-04-24T12:33:38.384Z,59.10
2019-04-24T12:37:50.067Z,59.80
2019-04-24T12:41:50.452Z,57.50
2019-04-24T12:50:14.022Z,60.50
2019-04-24T12:54:21.523Z,59.50
2019-04-24T12:58:42.742Z,59.30
2019-04-24T13:03:05.589Z,59.80
2019-04-24T13:07:07.350Z,59.20
2019-04-24T13:11:22.887Z,59.10
2019-04-24T13:15:33.261Z,59.30
2019-04-24T13:23:30.558Z,58.20
2019-04-24T13:28:17.797Z,57.40
2019-04-24T13:32:09.867Z,58.60
2019-04-24T13:36:18.212Z,57.80
2019-04-24T13:40:22.429Z,57.60
2019-04-24T13:48:42.738Z,57.90
2019-04-24T13:53:19.674Z,57.60
2019-04-24T13:56:47.227Z,56.10
2019-04-24T14:01:29.585Z,55.20
2019-04-24T14:05:45.946Z,56.20
2019-04-24T14:10:08.686Z,55.50
2019-04-24T14:14:04.493Z,57.00
2019-04-24T14:18:08.045Z,57.60
2019-04-24T14:30:29.081Z,57.70
2019-04-24T14:42:54.239Z,57.50
2019-04-24T14:47:04.031Z,57.60
2019-04-24T14:50:52.869Z,56.50
2019-04-24T14:55:22.743Z,57.20
2019-04-24T15:03:15.257Z,55.90
2019-04-24T15:11:36.020Z,56.90
2019-04-24T15:15:31.518Z,56.80
2019-04-24T15:19:54.986Z,57.10
2019-04-24T15:24:14.948Z,57.20
2019-04-24T15:28:01.461Z,57.20
2019-04-24T15:32:04.787Z,57.30
2019-04-24T15:36:07.811Z,57.00
2019-04-24T15:44:17.727Z,57.40
2019-04-24T15:52:04.865Z,57.80
2019-04-24T15:56:11.065Z,57.50
2019-04-24T16:00:47.694Z,57.50
2019-04-24T16:04:53.504Z,57.60
2019-04-24T16:08:29.947Z,57.50
2019-04-24T16:12:34.491Z,57.60
2019-04-24T16:17:14.781Z,57.50
2019-04-24T16:42:03.270Z,57.40
2019-04-24T16:46:33.204Z,57.30
2019-04-24T16:54:12.891Z,57.20
2019-04-24T17:02:18.721Z,57.60
2019-04-24T17:10:42.291Z,58.00
2019-04-24T17:19:02.950Z,58.10
2019-04-24T17:27:07.541Z,58.40
2019-04-24T17:31:16.676Z,58.40
2019-04-24T17:39:02.895Z,58.50
2019-04-24T17:43:31.845Z,58.50
2019-04-24T17:47:46.233Z,58.50
2019-04-24T17:51:38.732Z,59.10
2019-04-24T17:55:54.991Z,58.40
2019-04-24T17:59:33.869Z,58.60
2019-04-24T18:03:38.713Z,59.10
2019-04-24T18:07:43.264Z,58.90
2019-04-24T18:11:47.791Z,59.20
2019-04-24T18:15:52.385Z,59.30
2019-04-24T18:19:56.918Z,59.50
2019-04-24T18:24:02.382Z,59.80
2019-04-24T18:28:08.096Z,59.80
2019-04-24T18:32:13.868Z,60.00
2019-04-24T18:36:18.592Z,60.50
2019-04-24T18:40:23.152Z,60.50
2019-04-24T18:44:27.810Z,60.70
2019-04-24T18:48:32.368Z,60.90
2019-04-24T18:52:48.955Z,61.20
2019-04-24T18:56:43.102Z,61.20
2019-04-24T19:00:47.662Z,61.40
2019-04-24T19:04:52.219Z,62.10
2019-04-24T19:08:56.790Z,62.10
2019-04-24T19:13:01.316Z,61.80
2019-04-24T19:17:05.885Z,61.60
2019-04-24T19:21:10.550Z,61.90
2019-04-24T19:25:15.439Z,62.50
2019-04-24T19:29:20.037Z,62.00
2019-04-24T19:33:24.544Z,62.30
2019-04-24T19:37:29.099Z,62.30
2019-04-24T19:41:33.727Z,63.30
2019-04-24T19:45:38.318Z,62.80
2019-04-24T19:49:42.876Z,62.70
2019-04-24T19:53:47.447Z,62.90
2019-04-24T19:57:52.519Z,62.80
2019-04-24T20:01:57.220Z,63.00
2019-04-24T20:06:02.116Z,63.00
2019-04-24T20:10:24.089Z,63.00
2019-04-24T20:14:28.642Z,63.10
2019-04-24T20:18:33.365Z,63.10
2019-04-24T20:22:37.959Z,63.10
2019-04-24T20:26:42.507Z,63.30
2019-04-24T20:30:47.053Z,63.50
2019-04-24T20:34:51.815Z,63.70
2019-04-24T20:38:56.347Z,64.20
2019-04-24T20:43:02.316Z,64.10
2019-04-24T20:47:07.103Z,63.30
2019-04-24T20:51:12.004Z,61.60
2019-04-24T20:55:17.061Z,61.00
2019-04-24T20:59:23.034Z,62.10
2019-04-24T21:03:27.996Z,62.50
2019-04-24T21:11:55.492Z,81.10
2019-04-24T21:16:01.208Z,63.70
2019-04-24T21:20:05.948Z,63.90
2019-04-24T21:24:12.073Z,66.00
2019-04-24T21:28:16.792Z,68.20
2019-04-24T21:32:23.349Z,68.90
2019-04-24T21:36:27.769Z,67.80
2019-04-24T21:40:33.197Z,70.90
2019-04-24T21:44:37.831Z,71.10
2019-04-24T21:48:42.675Z,71.70
2019-04-24T21:52:47.228Z,73.10
2019-04-24T21:56:51.797Z,73.90
2019-04-24T22:01:22.094Z,73.70
2019-04-24T22:05:32.513Z,72.70
2019-04-24T22:09:37.244Z,73.20
2019-04-24T22:13:41.909Z,73.30
2019-04-24T22:17:46.454Z,73.40
2019-04-24T22:22:01.578Z,76.30
2019-04-24T22:26:06.788Z,74.90
2019-04-24T22:30:41.664Z,74.40
2019-04-24T22:34:50.484Z,72.00
2019-04-24T22:39:13.970Z,74.80
2019-04-24T22:43:18.981Z,70.60
2019-04-24T22:47:23.634Z,70.60
2019-04-24T22:51:28.257Z,70.40
2019-04-24T22:55:34.544Z,72.20
2019-04-24T22:59:40.008Z,73.50
2019-04-24T23:03:44.551Z,73.00
2019-04-24T23:07:49.204Z,72.60
2019-04-24T23:11:54.003Z,72.70
2019-04-24T23:15:58.519Z,72.40
2019-04-24T23:20:03.283Z,72.40
2019-04-24T23:24:42.136Z,72.70
2019-04-24T23:28:46.332Z,72.40
2019-04-24T23:32:57.332Z,72.70
2019-04-24T23:37:02.100Z,72.90
2019-04-24T23:41:06.732Z,72.70
2019-04-24T23:45:12.297Z,72.70
2019-04-24T23:49:16.995Z,72.40
2019-04-24T23:53:21.550Z,72.50
2019-04-24T23:57:26.088Z,73.40
